Yampa, Colorado
Current Conditions -  °F | °C
As of 6:15 PM on Saturday 25 Oct 2014 (Local Time) from KSBS Reporting Station
Clear Clear  
Wind Chill: 63°   Ceiling: Unl
Heat Index: 63°   Visibility: 10mi
Dew Point: 20°   Wind: 0mph
Humidity: 20%   Direction: NA
Pressure: 30.16"   Gusts: NA
Location:  40.15°N, 106.91°W
Report Text: KSBS 260015Z AUTO 00000KT 10SM CLR 17/M06 A3016 RMK AO1 T01711065
Loading
Personal Weather Stations






























Interactive Weather Map
Tropical Storm Tracking
New forecast layout! Learn more

10-Day Weather Forecast

Advertisements
Track Severe Weather on mobile